Time;durP1;ratioP1;P1;durP2;ratioP2;P2;SDS_P1;SDS_P2;PMS_P1;PMS_P2;Temp;Humidity;BMP_temperature;BMP_pressure;BME280_temperature;BME280_humidity;BME280_pressure;Samples;Min_cycle;Max_cycle;Signal;HPM_P1;HPM_P2
2021/09/07 00:00:07;;;;;;;9.5;5.7;;;;;;;;;;;;;
2021/09/07 00:02:32;;;;;;;8.2;5;;;;;;;;;;;;;
2021/09/07 00:04:57;;;;;;;6.5;5.3;;;;;;;;;;;;;
2021/09/07 00:07:24;;;;;;;8.1;5.4;;;;;;;;;;;;;
2021/09/07 00:09:48;;;;;;;8;5.5;;;;;;;;;;;;;
2021/09/07 00:12:13;;;;;;;7.6;5.2;;;;;;;;;;;;;
2021/09/07 00:14:38;;;;;;;6.9;5.3;;;;;;;;;;;;;
2021/09/07 00:17:03;;;;;;;11.4;9.7;;;;;;;;;;;;;
2021/09/07 00:19:28;;;;;;;8.8;6.7;;;;;;;;;;;;;
2021/09/07 00:21:53;;;;;;;7.6;5.9;;;;;;;;;;;;;
2021/09/07 00:24:19;;;;;;;7.4;5.6;;;;;;;;;;;;;
2021/09/07 00:26:43;;;;;;;7.2;5.4;;;;;;;;;;;;;
2021/09/07 00:29:08;;;;;;;8.9;5.6;;;;;;;;;;;;;
2021/09/07 00:31:33;;;;;;;6.6;5.3;;;;;;;;;;;;;
2021/09/07 00:33:59;;;;;;;7.7;5.7;;;;;;;;;;;;;
2021/09/07 00:36:24;;;;;;;8;5.9;;;;;;;;;;;;;
2021/09/07 00:38:49;;;;;;;6.5;5.4;;;;;;;;;;;;;
2021/09/07 00:41:14;;;;;;;8.9;5.6;;;;;;;;;;;;;
2021/09/07 00:43:39;;;;;;;6.5;5;;;;;;;;;;;;;
2021/09/07 00:46:04;;;;;;;7.9;5.6;;;;;;;;;;;;;
2021/09/07 00:48:29;;;;;;;6.6;5;;;;;;;;;;;;;
2021/09/07 00:50:54;;;;;;;6.7;5;;;;;;;;;;;;;
2021/09/07 00:53:19;;;;;;;7.6;5.1;;;;;;;;;;;;;
2021/09/07 00:55:44;;;;;;;7.7;6.1;;;;;;;;;;;;;
2021/09/07 00:58:09;;;;;;;7.6;5.6;;;;;;;;;;;;;
2021/09/07 01:00:35;;;;;;;7.3;5.5;;;;;;;;;;;;;
2021/09/07 01:03:00;;;;;;;6.4;5.2;;;;;;;;;;;;;
2021/09/07 01:05:25;;;;;;;7.8;5.6;;;;;;;;;;;;;
2021/09/07 01:07:50;;;;;;;7.5;5.3;;;;;;;;;;;;;
2021/09/07 01:10:15;;;;;;;6.9;5.2;;;;;;;;;;;;;
2021/09/07 01:12:40;;;;;;;7.5;5.3;;;;;;;;;;;;;
2021/09/07 01:15:05;;;;;;;7.9;5.6;;;;;;;;;;;;;
2021/09/07 01:17:30;;;;;;;7;5.3;;;;;;;;;;;;;
2021/09/07 01:19:55;;;;;;;6.5;5.2;;;;;;;;;;;;;
2021/09/07 01:22:21;;;;;;;7.7;4.9;;;;;;;;;;;;;
2021/09/07 01:24:46;;;;;;;7.3;5.2;;;;;;;;;;;;;
2021/09/07 01:27:11;;;;;;;7.5;5.4;;;;;;;;;;;;;
2021/09/07 01:29:36;;;;;;;7.5;5.3;;;;;;;;;;;;;
2021/09/07 01:32:01;;;;;;;6.7;5.2;;;;;;;;;;;;;
2021/09/07 01:34:26;;;;;;;6;4.8;;;;;;;;;;;;;
2021/09/07 01:36:52;;;;;;;6.7;5.3;;;;;;;;;;;;;
2021/09/07 01:39:18;;;;;;;6.5;5.1;;;;;;;;;;;;;
2021/09/07 01:41:42;;;;;;;8.8;5.2;;;;;;;;;;;;;
2021/09/07 01:44:07;;;;;;;7.9;5.3;;;;;;;;;;;;;
2021/09/07 01:46:33;;;;;;;6.7;5.5;;;;;;;;;;;;;
2021/09/07 01:48:58;;;;;;;7.5;5.8;;;;;;;;;;;;;
2021/09/07 01:51:23;;;;;;;7.2;5.4;;;;;;;;;;;;;
2021/09/07 01:53:48;;;;;;;6.8;5.1;;;;;;;;;;;;;
2021/09/07 01:56:13;;;;;;;6.4;5;;;;;;;;;;;;;
2021/09/07 01:58:38;;;;;;;6.2;4.7;;;;;;;;;;;;;
2021/09/07 02:01:03;;;;;;;7.2;5.5;;;;;;;;;;;;;
2021/09/07 02:03:28;;;;;;;7.1;5;;;;;;;;;;;;;
2021/09/07 02:05:54;;;;;;;7;5.1;;;;;;;;;;;;;
2021/09/07 02:08:19;;;;;;;6.8;5.4;;;;;;;;;;;;;
2021/09/07 02:10:44;;;;;;;6.6;5.4;;;;;;;;;;;;;
2021/09/07 02:13:09;;;;;;;7.3;5.1;;;;;;;;;;;;;
2021/09/07 02:15:34;;;;;;;7.6;5.8;;;;;;;;;;;;;
2021/09/07 02:17:59;;;;;;;9.2;5.5;;;;;;;;;;;;;
2021/09/07 02:20:24;;;;;;;7.3;5.5;;;;;;;;;;;;;
2021/09/07 02:22:49;;;;;;;8.1;6;;;;;;;;;;;;;
2021/09/07 02:25:15;;;;;;;9;5.7;;;;;;;;;;;;;
2021/09/07 02:27:40;;;;;;;6.9;5.4;;;;;;;;;;;;;
2021/09/07 02:30:05;;;;;;;8;5.8;;;;;;;;;;;;;
2021/09/07 02:32:30;;;;;;;7.8;5.6;;;;;;;;;;;;;
2021/09/07 02:34:57;;;;;;;7.3;5.3;;;;;;;;;;;;;
2021/09/07 02:37:21;;;;;;;7.4;4.8;;;;;;;;;;;;;
2021/09/07 02:39:46;;;;;;;6.5;5.3;;;;;;;;;;;;;
2021/09/07 02:42:11;;;;;;;9;5.5;;;;;;;;;;;;;
2021/09/07 02:44:36;;;;;;;7.5;5.2;;;;;;;;;;;;;
2021/09/07 02:47:01;;;;;;;8.7;5.7;;;;;;;;;;;;;
2021/09/07 02:49:48;;;;;;;7.9;5.9;;;;;;;;;;;;;
2021/09/07 02:52:14;;;;;;;6.1;5.1;;;;;;;;;;;;;
2021/09/07 02:54:39;;;;;;;8.4;5.6;;;;;;;;;;;;;
2021/09/07 02:57:04;;;;;;;7.1;6.1;;;;;;;;;;;;;
2021/09/07 02:59:29;;;;;;;9.5;6;;;;;;;;;;;;;
2021/09/07 03:01:54;;;;;;;8.5;5.8;;;;;;;;;;;;;
2021/09/07 03:04:19;;;;;;;8.5;5.6;;;;;;;;;;;;;
2021/09/07 03:06:46;;;;;;;8.3;5.8;;;;;;;;;;;;;
2021/09/07 03:09:09;;;;;;;6.9;5.7;;;;;;;;;;;;;
2021/09/07 03:11:34;;;;;;;6.7;5.5;;;;;;;;;;;;;
2021/09/07 03:13:59;;;;;;;6.6;4.9;;;;;;;;;;;;;
2021/09/07 03:16:25;;;;;;;6.8;5;;;;;;;;;;;;;
2021/09/07 03:18:50;;;;;;;7.2;5.4;;;;;;;;;;;;;
2021/09/07 03:21:16;;;;;;;7;5.1;;;;;;;;;;;;;
2021/09/07 03:23:41;;;;;;;8.5;5.1;;;;;;;;;;;;;
2021/09/07 03:26:06;;;;;;;6.9;5.6;;;;;;;;;;;;;
2021/09/07 03:28:31;;;;;;;7.9;5.5;;;;;;;;;;;;;
2021/09/07 03:30:56;;;;;;;7.2;5.3;;;;;;;;;;;;;
2021/09/07 03:33:21;;;;;;;7.9;5.1;;;;;;;;;;;;;
2021/09/07 03:35:47;;;;;;;7.4;5.5;;;;;;;;;;;;;
2021/09/07 03:38:12;;;;;;;6.5;5.1;;;;;;;;;;;;;
2021/09/07 03:40:37;;;;;;;7.8;5.3;;;;;;;;;;;;;
2021/09/07 03:43:02;;;;;;;8.1;5.4;;;;;;;;;;;;;
2021/09/07 03:45:28;;;;;;;10.3;6.1;;;;;;;;;;;;;
2021/09/07 03:47:52;;;;;;;7.9;6;;;;;;;;;;;;;
2021/09/07 03:50:17;;;;;;;8.6;5.8;;;;;;;;;;;;;
2021/09/07 03:52:43;;;;;;;9;5.9;;;;;;;;;;;;;
2021/09/07 03:55:08;;;;;;;8.7;5.7;;;;;;;;;;;;;
2021/09/07 03:57:34;;;;;;;6.7;5.5;;;;;;;;;;;;;
2021/09/07 03:59:58;;;;;;;8;5.3;;;;;;;;;;;;;
2021/09/07 04:02:31;;;;;;;6.8;5.4;;;;;;;12.38;90.36719;944.4503;;;;
2021/09/07 04:04:56;;;;;;;15.6;6.8;;;;;;;12.33;91.13574;944.5239;;;;
2021/09/07 04:07:22;;;;;;;7.7;5.4;;;;;;;12.23;91.92871;944.5171;;;;
2021/09/07 04:09:47;;;;;;;9.3;5.8;;;;;;;12.32;91.14258;944.5278;;;;
2021/09/07 04:12:12;;;;;;;7.8;5.2;;;;;;;12.39;90.64453;944.4512;;;;
2021/09/07 04:14:38;;;;;;;12.9;6.2;;;;;;;12.38;90.49316;944.4886;;;;
2021/09/07 04:17:04;;;;;;;8.9;5.7;;;;;;;12.27;90.81445;944.4378;;;;
2021/09/07 04:19:28;;;;;;;12.2;6.4;;;;;;;12.26;90.99414;944.4447;;;;
2021/09/07 04:21:53;;;;;;;9.3;6.4;;;;;;;12.22;90.64258;944.4203;;;;
2021/09/07 04:24:18;;;;;;;8.6;5.7;;;;;;;12.11;91.41992;944.4624;;;;
2021/09/07 04:26:43;;;;;;;8.2;5;;;;;;;12.05;92.6582;944.4592;;;;
2021/09/07 04:29:08;;;;;;;11.4;5.9;;;;;;;12.06;92.45313;944.3972;;;;
2021/09/07 04:31:34;;;;;;;8.5;6;;;;;;;11.99;92.65527;944.4261;;;;
2021/09/07 04:33:59;;;;;;;9.5;5.7;;;;;;;11.8;93.93164;944.5206;;;;
2021/09/07 04:36:24;;;;;;;9.3;6;;;;;;;11.84;93.75684;944.6092;;;;
2021/09/07 04:38:50;;;;;;;9.6;5.9;;;;;;;11.92;92.74512;944.5848;;;;
2021/09/07 04:41:15;;;;;;;10.7;5.8;;;;;;;12.01;92.63867;944.5538;;;;
2021/09/07 04:43:40;;;;;;;10.5;6.9;;;;;;;12.07;91.90332;944.5625;;;;
2021/09/07 04:46:05;;;;;;;9.8;6.3;;;;;;;12.14;91.22168;944.5994;;;;
2021/09/07 04:48:30;;;;;;;14.2;7.1;;;;;;;12.09;91.22363;944.6147;;;;
2021/09/07 04:50:55;;;;;;;8.2;5.3;;;;;;;12.03;91.1416;944.6339;;;;
2021/09/07 04:53:21;;;;;;;9.6;6.5;;;;;;;11.9;91.56152;944.6883;;;;
2021/09/07 04:55:47;;;;;;;10.3;5.5;;;;;;;11.78;92.47363;944.6716;;;;
2021/09/07 04:58:11;;;;;;;11.2;6.4;;;;;;;11.81;92.63965;944.6436;;;;
2021/09/07 05:00:36;;;;;;;8.8;6;;;;;;;11.93;92.03711;944.6769;;;;
2021/09/07 05:03:02;;;;;;;12.7;7;;;;;;;12.02;91.3916;944.6808;;;;
2021/09/07 05:05:27;;;;;;;10.2;6.4;;;;;;;12.06;91.41113;944.7028;;;;
2021/09/07 05:07:54;;;;;;;10.6;5.8;;;;;;;12.15;90.7998;944.6674;;;;
2021/09/07 05:10:19;;;;;;;6.9;5.2;;;;;;;12.23;90.12695;944.7733;;;;
2021/09/07 05:12:44;;;;;;;9.3;5.7;;;;;;;12.3;89.78613;944.7159;;;;
2021/09/07 05:15:09;;;;;;;6.6;5;;;;;;;12.22;90.16113;944.7477;;;;
2021/09/07 05:17:34;;;;;;;7.6;5.4;;;;;;;12.23;90.92969;944.6983;;;;
2021/09/07 05:20:00;;;;;;;7.4;5.4;;;;;;;12.29;90.65625;944.747;;;;
2021/09/07 05:22:25;;;;;;;11.6;5.6;;;;;;;12.44;90.31152;944.6854;;;;
2021/09/07 05:24:50;;;;;;;10.3;5.6;;;;;;;12.42;90.16797;944.6986;;;;
2021/09/07 05:27:15;;;;;;;8.8;5.3;;;;;;;12.56;89.79492;944.7332;;;;
2021/09/07 05:29:40;;;;;;;7.4;5.4;;;;;;;12.72;88.95801;944.7361;;;;
2021/09/07 05:32:06;;;;;;;8.5;5.1;;;;;;;12.67;88.49902;944.7188;;;;
2021/09/07 05:34:31;;;;;;;9;5.5;;;;;;;12.52;89.86719;944.6871;;;;
2021/09/07 05:36:57;;;;;;;7.1;5.6;;;;;;;12.5;90.41406;944.6797;;;;
2021/09/07 05:39:23;;;;;;;10.3;6;;;;;;;12.59;90.65137;944.7375;;;;
2021/09/07 05:41:48;;;;;;;8.6;6.3;;;;;;;12.79;90.31348;944.7905;;;;
2021/09/07 05:44:13;;;;;;;11;5.5;;;;;;;13.16;88.15039;944.8006;;;;
2021/09/07 05:46:38;;;;;;;11;5.3;;;;;;;13.33;86.87598;944.7548;;;;
2021/09/07 05:49:11;;;;;;;9.2;5.3;;;;;;;13.31;87.51367;944.7922;;;;
2021/09/07 05:51:36;;;;;;;10.7;6.2;;;;;;;13.57;87.04883;944.8412;;;;
2021/09/07 05:54:02;;;;;;;12.9;6.3;;;;;;;13.74;85.57617;944.8492;;;;
2021/09/07 05:56:28;;;;;;;10.2;5.5;;;;;;;13.72;86.61914;944.9219;;;;
2021/09/07 05:59:02;;;;;;;8.2;5.5;;;;;;;13.9;86.35645;944.9733;;;;
2021/09/07 06:01:35;;;;;;;6.2;5.3;;;;;;;14.16;85.625;944.9473;;;;
2021/09/07 06:03:58;;;;;;;7.9;5.7;;;;;;;;;;;;;
2021/09/07 06:06:24;;;;;;;9.2;6;;;;;;;;;;;;;
2021/09/07 06:08:49;;;;;;;9.5;6.2;;;;;;;;;;;;;
2021/09/07 06:11:14;;;;;;;8.7;5.3;;;;;;;;;;;;;
2021/09/07 06:13:39;;;;;;;11.8;5.7;;;;;;;;;;;;;
2021/09/07 06:16:04;;;;;;;8.4;6;;;;;;;;;;;;;
2021/09/07 06:18:29;;;;;;;8.5;4.8;;;;;;;;;;;;;
2021/09/07 06:20:54;;;;;;;7;4.3;;;;;;;;;;;;;
2021/09/07 06:23:19;;;;;;;6.5;4.1;;;;;;;;;;;;;
2021/09/07 06:25:44;;;;;;;6.5;3.5;;;;;;;;;;;;;
2021/09/07 06:28:10;;;;;;;7.4;3.9;;;;;;;;;;;;;
2021/09/07 06:30:35;;;;;;;6.9;4.3;;;;;;;;;;;;;
2021/09/07 06:33:00;;;;;;;4.6;3.9;;;;;;;;;;;;;
2021/09/07 06:35:25;;;;;;;7.8;4.1;;;;;;;;;;;;;
2021/09/07 06:37:56;;;;;;;4.6;3.8;;;;;;;;;;;;;
2021/09/07 06:40:22;;;;;;;8.1;3.9;;;;;;;;;;;;;
2021/09/07 06:42:47;;;;;;;5.2;3.6;;;;;;;;;;;;;
2021/09/07 06:45:25;;;;;;;5.4;3.7;;;;;;;;;;;;;
2021/09/07 06:47:44;;;;;;;10.4;3.8;;;;;;;;;;;;;
2021/09/07 06:50:11;;;;;;;5;3.3;;;;;;;;;;;;;
2021/09/07 06:52:34;;;;;;;7.8;3.7;;;;;;;;;;;;;
2021/09/07 06:54:59;;;;;;;5.6;3.7;;;;;;;;;;;;;
2021/09/07 06:57:25;;;;;;;6.5;3.8;;;;;;;;;;;;;
2021/09/07 06:59:50;;;;;;;8.2;4.1;;;;;;;;;;;;;
2021/09/07 07:02:15;;;;;;;4.2;3.4;;;;;;;;;;;;;
2021/09/07 07:04:40;;;;;;;4.5;3.7;;;;;;;;;;;;;
2021/09/07 07:07:05;;;;;;;4;3.6;;;;;;;;;;;;;
2021/09/07 07:09:30;;;;;;;5.3;3.7;;;;;;;;;;;;;
2021/09/07 07:11:55;;;;;;;6.8;3.9;;;;;;;;;;;;;
2021/09/07 07:14:21;;;;;;;10.8;4.5;;;;;;;;;;;;;
2021/09/07 07:16:46;;;;;;;5;3.7;;;;;;;;;;;;;
2021/09/07 07:19:11;;;;;;;5.1;4;;;;;;;;;;;;;
2021/09/07 07:21:36;;;;;;;5.3;3.9;;;;;;;;;;;;;
2021/09/07 07:24:01;;;;;;;5.8;3.7;;;;;;;;;;;;;
2021/09/07 07:26:26;;;;;;;5.5;3.2;;;;;;;;;;;;;
2021/09/07 07:28:51;;;;;;;6;3.7;;;;;;;;;;;;;
2021/09/07 07:31:16;;;;;;;5.5;3.6;;;;;;;;;;;;;
2021/09/07 07:33:41;;;;;;;5;3.3;;;;;;;;;;;;;
2021/09/07 07:36:06;;;;;;;5.3;3.5;;;;;;;;;;;;;
2021/09/07 07:38:31;;;;;;;5.8;3.6;;;;;;;;;;;;;
2021/09/07 07:40:56;;;;;;;7.4;3.7;;;;;;;;;;;;;
2021/09/07 07:43:25;;;;;;;5.5;3.1;;;;;;;;;;;;;
2021/09/07 07:45:47;;;;;;;4.4;3.3;;;;;;;;;;;;;
2021/09/07 07:48:12;;;;;;;4.2;3.1;;;;;;;;;;;;;
2021/09/07 07:50:38;;;;;;;5.2;3.2;;;;;;;;;;;;;
2021/09/07 07:53:04;;;;;;;4.4;3.4;;;;;;;;;;;;;
2021/09/07 07:55:28;;;;;;;5;3.5;;;;;;;;;;;;;
2021/09/07 07:57:53;;;;;;;4.7;3;;;;;;;;;;;;;
2021/09/07 08:00:18;;;;;;;3.8;3.4;;;;;;;;;;;;;
2021/09/07 08:02:43;;;;;;;4.3;3.2;;;;;;;;;;;;;
2021/09/07 08:05:08;;;;;;;4.4;3.7;;;;;;;;;;;;;
2021/09/07 08:07:33;;;;;;;5.4;3.5;;;;;;;;;;;;;
2021/09/07 08:09:58;;;;;;;4.9;3.2;;;;;;;;;;;;;
2021/09/07 08:12:24;;;;;;;5.8;3.3;;;;;;;;;;;;;
2021/09/07 08:14:49;;;;;;;4.2;3.2;;;;;;;;;;;;;
2021/09/07 08:17:14;;;;;;;4;3.1;;;;;;;;;;;;;
2021/09/07 08:19:39;;;;;;;3.5;3;;;;;;;;;;;;;
2021/09/07 08:22:04;;;;;;;3.7;3.1;;;;;;;;;;;;;
2021/09/07 08:24:29;;;;;;;6.2;3.5;;;;;;;;;;;;;
2021/09/07 08:26:54;;;;;;;3.4;2.9;;;;;;;;;;;;;
2021/09/07 08:29:19;;;;;;;3.3;2.9;;;;;;;;;;;;;
2021/09/07 08:31:44;;;;;;;3.1;2.8;;;;;;;;;;;;;
2021/09/07 08:34:09;;;;;;;4.6;3.1;;;;;;;;;;;;;
2021/09/07 08:36:34;;;;;;;4.6;3.5;;;;;;;;;;;;;
2021/09/07 08:38:59;;;;;;;3.9;2.8;;;;;;;;;;;;;
2021/09/07 08:41:24;;;;;;;4.1;3.1;;;;;;;;;;;;;
2021/09/07 08:43:51;;;;;;;3.7;3;;;;;;;;;;;;;
2021/09/07 08:46:15;;;;;;;4.5;3.1;;;;;;;;;;;;;
2021/09/07 08:48:40;;;;;;;4;2.9;;;;;;;;;;;;;
2021/09/07 08:51:05;;;;;;;4.9;3.3;;;;;;;;;;;;;
2021/09/07 08:53:30;;;;;;;3.5;3.1;;;;;;;;;;;;;
2021/09/07 08:55:55;;;;;;;5;3.1;;;;;;;;;;;;;
2021/09/07 08:58:21;;;;;;;4;3.1;;;;;;;;;;;;;
2021/09/07 09:00:46;;;;;;;4.2;3.2;;;;;;;;;;;;;
2021/09/07 09:03:12;;;;;;;4.5;3.4;;;;;;;;;;;;;
2021/09/07 09:05:37;;;;;;;3.9;3.3;;;;;;;;;;;;;
2021/09/07 09:08:02;;;;;;;4.5;3.2;;;;;;;;;;;;;
2021/09/07 09:10:27;;;;;;;4.4;3.4;;;;;;;;;;;;;
2021/09/07 09:12:52;;;;;;;3.9;3.5;;;;;;;;;;;;;
2021/09/07 09:15:19;;;;;;;4.4;3.3;;;;;;;;;;;;;
2021/09/07 09:17:42;;;;;;;4.3;3.4;;;;;;;;;;;;;
2021/09/07 09:20:08;;;;;;;4;3.5;;;;;;;;;;;;;
2021/09/07 09:22:33;;;;;;;4;3.3;;;;;;;;;;;;;
2021/09/07 09:24:58;;;;;;;4.3;3.2;;;;;;;;;;;;;
2021/09/07 09:27:23;;;;;;;4;3.2;;;;;;;;;;;;;
2021/09/07 09:29:50;;;;;;;5;3.2;;;;;;;;;;;;;
2021/09/07 09:32:14;;;;;;;5.4;3.8;;;;;;;;;;;;;
2021/09/07 09:34:38;;;;;;;4.8;3.7;;;;;;;;;;;;;
2021/09/07 09:37:03;;;;;;;5.6;3.6;;;;;;;;;;;;;
2021/09/07 09:39:29;;;;;;;4.2;3.6;;;;;;;;;;;;;
2021/09/07 09:41:54;;;;;;;4.6;3.8;;;;;;;;;;;;;
2021/09/07 09:44:20;;;;;;;4.4;3.9;;;;;;;;;;;;;
2021/09/07 09:46:45;;;;;;;4.6;3.5;;;;;;;;;;;;;
2021/09/07 09:49:10;;;;;;;4.8;3.9;;;;;;;;;;;;;
2021/09/07 09:51:35;;;;;;;4.3;3.7;;;;;;;;;;;;;
2021/09/07 09:54:00;;;;;;;4.3;3.3;;;;;;;;;;;;;
2021/09/07 09:56:26;;;;;;;3.7;3.2;;;;;;;;;;;;;
2021/09/07 09:58:50;;;;;;;5.1;3.2;;;;;;;;;;;;;
2021/09/07 10:01:15;;;;;;;4.2;3.3;;;;;;;;;;;;;
2021/09/07 10:03:40;;;;;;;4.7;3.6;;;;;;;;;;;;;
2021/09/07 10:06:05;;;;;;;5.2;3.6;;;;;;;;;;;;;
2021/09/07 10:08:30;;;;;;;3.8;3.4;;;;;;;;;;;;;
2021/09/07 10:10:56;;;;;;;5.6;3.9;;;;;;;;;;;;;
2021/09/07 10:13:21;;;;;;;5.8;3.5;;;;;;;;;;;;;
2021/09/07 10:15:49;;;;;;;5.7;3.7;;;;;;;;;;;;;
2021/09/07 10:18:17;;;;;;;4.8;3.6;;;;;;;;;;;;;
2021/09/07 10:20:36;;;;;;;4.8;3.7;;;;;;;;;;;;;
2021/09/07 10:23:14;;;;;;;5.6;3.3;;;;;;;;;;;;;
2021/09/07 10:25:27;;;;;;;4;3.4;;;;;;;;;;;;;
2021/09/07 10:27:52;;;;;;;5.5;3.7;;;;;;;;;;;;;
2021/09/07 10:30:17;;;;;;;4.2;3.5;;;;;;;;;;;;;
2021/09/07 10:32:42;;;;;;;4.3;3.8;;;;;;;;;;;;;
2021/09/07 10:35:07;;;;;;;3.9;3.3;;;;;;;;;;;;;
2021/09/07 10:37:32;;;;;;;4.7;3.7;;;;;;;;;;;;;
2021/09/07 10:39:57;;;;;;;4.5;3.7;;;;;;;;;;;;;
2021/09/07 10:42:22;;;;;;;5.5;3.9;;;;;;;;;;;;;
2021/09/07 10:44:48;;;;;;;4.3;3.6;;;;;;;;;;;;;
2021/09/07 10:47:13;;;;;;;4.5;3.4;;;;;;;;;;;;;
2021/09/07 10:49:40;;;;;;;6.5;3.4;;;;;;;;;;;;;
2021/09/07 10:52:03;;;;;;;4.6;3.7;;;;;;;;;;;;;
2021/09/07 10:54:28;;;;;;;4;3.6;;;;;;;;;;;;;
2021/09/07 10:56:56;;;;;;;4.4;3.7;;;;;;;;;;;;;
2021/09/07 10:59:18;;;;;;;4.9;3.9;;;;;;;;;;;;;
2021/09/07 11:01:43;;;;;;;4.2;3.5;;;;;;;;;;;;;
2021/09/07 11:04:08;;;;;;;3.8;3.4;;;;;;;;;;;;;
2021/09/07 11:06:34;;;;;;;4.5;4.1;;;;;;;;;;;;;
2021/09/07 11:09:00;;;;;;;3.9;3.5;;;;;;;;;;;;;
2021/09/07 11:11:25;;;;;;;4.9;3.5;;;;;;;;;;;;;
2021/09/07 11:13:51;;;;;;;4.3;3;;;;;;;;;;;;;
2021/09/07 11:16:15;;;;;;;3.8;3.4;;;;;;;;;;;;;
2021/09/07 11:18:42;;;;;;;4.1;3.7;;;;;;;;;;;;;
2021/09/07 11:21:06;;;;;;;4.3;3.9;;;;;;;;;;;;;
2021/09/07 11:23:30;;;;;;;4.4;3.6;;;;;;;;;;;;;
2021/09/07 11:25:55;;;;;;;4.7;3.4;;;;;;;;;;;;;
2021/09/07 11:28:20;;;;;;;3.9;3.3;;;;;;;;;;;;;
2021/09/07 11:30:47;;;;;;;4.9;3.8;;;;;;;;;;;;;
2021/09/07 11:33:11;;;;;;;4.3;3.5;;;;;;;;;;;;;
2021/09/07 11:35:36;;;;;;;4.7;3.9;;;;;;;;;;;;;
2021/09/07 11:38:01;;;;;;;5;3.7;;;;;;;;;;;;;
2021/09/07 11:40:26;;;;;;;4.6;3.5;;;;;;;;;;;;;
2021/09/07 11:42:51;;;;;;;3.9;3.5;;;;;;;;;;;;;
2021/09/07 11:45:16;;;;;;;5;3.9;;;;;;;;;;;;;
2021/09/07 11:47:41;;;;;;;4;3.3;;;;;;;;;;;;;
2021/09/07 11:50:06;;;;;;;9.1;4.2;;;;;;;;;;;;;
2021/09/07 11:52:32;;;;;;;4;3.4;;;;;;;;;;;;;
2021/09/07 11:54:57;;;;;;;4.4;3.5;;;;;;;;;;;;;
2021/09/07 11:57:22;;;;;;;4.8;3.9;;;;;;;;;;;;;
2021/09/07 11:59:47;;;;;;;4.9;3.7;;;;;;;;;;;;;
2021/09/07 12:02:12;;;;;;;4.8;3.7;;;;;;;;;;;;;
2021/09/07 12:04:38;;;;;;;4.6;3.5;;;;;;;;;;;;;
2021/09/07 12:07:04;;;;;;;5;3.7;;;;;;;;;;;;;
2021/09/07 12:09:28;;;;;;;6.3;3.7;;;;;;;;;;;;;
2021/09/07 12:11:54;;;;;;;4.8;3.9;;;;;;;;;;;;;
2021/09/07 12:14:19;;;;;;;4.7;3.9;;;;;;;;;;;;;
2021/09/07 12:16:44;;;;;;;5.7;3.9;;;;;;;;;;;;;
2021/09/07 12:19:09;;;;;;;4.9;3.8;;;;;;;;;;;;;
2021/09/07 12:21:34;;;;;;;4;3.6;;;;;;;;;;;;;
2021/09/07 12:23:59;;;;;;;5;3.8;;;;;;;;;;;;;
2021/09/07 12:26:24;;;;;;;4.7;3.5;;;;;;;;;;;;;
2021/09/07 12:28:50;;;;;;;5.3;3.3;;;;;;;;;;;;;
2021/09/07 12:31:15;;;;;;;4.7;3.9;;;;;;;;;;;;;
2021/09/07 12:33:40;;;;;;;5;4;;;;;;;;;;;;;
2021/09/07 12:36:05;;;;;;;5.8;3.6;;;;;;;;;;;;;
2021/09/07 12:38:31;;;;;;;5.2;3.9;;;;;;;;;;;;;
2021/09/07 12:40:55;;;;;;;6;3.5;;;;;;;;;;;;;
2021/09/07 12:43:20;;;;;;;5.2;4;;;;;;;;;;;;;
2021/09/07 12:45:46;;;;;;;5.7;3.5;;;;;;;;;;;;;
2021/09/07 12:48:11;;;;;;;4.5;3.9;;;;;;;;;;;;;
2021/09/07 12:50:36;;;;;;;4.8;3.7;;;;;;;;;;;;;
2021/09/07 12:53:07;;;;;;;5.8;3.6;;;;;;;;;;;;;
2021/09/07 12:55:31;;;;;;;5.3;3.7;;;;;;;;;;;;;
2021/09/07 12:57:56;;;;;;;4.8;3.6;;;;;;;;;;;;;
2021/09/07 13:00:21;;;;;;;5.5;3.6;;;;;;;;;;;;;
2021/09/07 13:02:46;;;;;;;4.4;3.5;;;;;;;;;;;;;
2021/09/07 13:05:11;;;;;;;4.7;3.7;;;;;;;;;;;;;
2021/09/07 13:07:36;;;;;;;4.9;3.5;;;;;;;;;;;;;
2021/09/07 13:10:01;;;;;;;4.9;3.6;;;;;;;;;;;;;
2021/09/07 13:12:26;;;;;;;4.5;3.6;;;;;;;;;;;;;
2021/09/07 13:14:52;;;;;;;5.7;3.4;;;;;;;;;;;;;
2021/09/07 13:17:17;;;;;;;3.5;3.1;;;;;;;;;;;;;
2021/09/07 13:19:42;;;;;;;4;3.4;;;;;;;;;;;;;
2021/09/07 13:22:07;;;;;;;4.1;3.5;;;;;;;;;;;;;
2021/09/07 13:24:33;;;;;;;4.3;3;;;;;;;;;;;;;
2021/09/07 13:26:58;;;;;;;4;3.2;;;;;;;;;;;;;
2021/09/07 13:29:23;;;;;;;4.3;3.3;;;;;;;;;;;;;
2021/09/07 13:31:49;;;;;;;4.8;3.5;;;;;;;;;;;;;
2021/09/07 13:34:30;;;;;;;4.2;3.1;;;;;;;;;;;;;
2021/09/07 13:36:43;;;;;;;3.9;3;;;;;;;;;;;;;
2021/09/07 13:39:10;;;;;;;4.6;3;;;;;;;;;;;;;
2021/09/07 13:41:35;;;;;;;5.1;3;;;;;;;;;;;;;
2021/09/07 13:44:01;;;;;;;4.2;3.4;;;;;;;;;;;;;
2021/09/07 13:46:26;;;;;;;4;3.1;;;;;;;;;;;;;
2021/09/07 13:48:51;;;;;;;3.6;3.1;;;;;;;;;;;;;
2021/09/07 13:51:17;;;;;;;4.1;3.2;;;;;;;;;;;;;
2021/09/07 13:53:42;;;;;;;3.2;2.9;;;;;;;;;;;;;
2021/09/07 13:56:07;;;;;;;3.8;3.2;;;;;;;;;;;;;
2021/09/07 13:58:32;;;;;;;3.8;3.4;;;;;;;;;;;;;
2021/09/07 14:00:57;;;;;;;4;2.9;;;;;;;;;;;;;
2021/09/07 14:03:22;;;;;;;4.2;3;;;;;;;;;;;;;
2021/09/07 14:05:47;;;;;;;5.4;3.3;;;;;;;;;;;;;
2021/09/07 14:08:12;;;;;;;5.1;3.5;;;;;;;;;;;;;
2021/09/07 14:10:37;;;;;;;4.4;3.2;;;;;;;;;;;;;
2021/09/07 14:13:02;;;;;;;4.2;3.3;;;;;;;;;;;;;
2021/09/07 14:15:28;;;;;;;4;3.6;;;;;;;;;;;;;
2021/09/07 14:17:52;;;;;;;6.3;3.8;;;;;;;;;;;;;
2021/09/07 14:20:18;;;;;;;4.2;3.4;;;;;;;;;;;;;
2021/09/07 14:22:44;;;;;;;3.8;3.4;;;;;;;;;;;;;
2021/09/07 14:25:08;;;;;;;5.3;3.5;;;;;;;;;;;;;
2021/09/07 14:27:34;;;;;;;4.2;3.5;;;;;;;;;;;;;
2021/09/07 14:29:59;;;;;;;5.3;3.3;;;;;;;;;;;;;
2021/09/07 14:32:24;;;;;;;4;3.3;;;;;;;;;;;;;
2021/09/07 14:34:50;;;;;;;3.7;3.1;;;;;;;;;;;;;
2021/09/07 14:37:15;;;;;;;6;3.5;;;;;;;;;;;;;
2021/09/07 14:39:40;;;;;;;5.9;3.9;;;;;;;;;;;;;
2021/09/07 14:42:05;;;;;;;5.2;3.6;;;;;;;;;;;;;
2021/09/07 14:44:31;;;;;;;4.8;3.9;;;;;;;;;;;;;
2021/09/07 14:46:56;;;;;;;5.4;3.5;;;;;;;;;;;;;
2021/09/07 14:49:21;;;;;;;4.1;3.7;;;;;;;;;;;;;
2021/09/07 14:51:46;;;;;;;4.5;3.7;;;;;;;;;;;;;
2021/09/07 14:54:12;;;;;;;4.4;3.7;;;;;;;;;;;;;
2021/09/07 14:56:36;;;;;;;5.4;3.3;;;;;;;;;;;;;
2021/09/07 14:59:01;;;;;;;4.9;3.6;;;;;;;;;;;;;
2021/09/07 15:01:26;;;;;;;4.3;3.5;;;;;;;;;;;;;
2021/09/07 15:06:17;;;;;;;4.7;3.8;;;;;;;;;;;;;
2021/09/07 15:08:42;;;;;;;6.4;3.8;;;;;;;;;;;;;
2021/09/07 15:11:07;;;;;;;6.3;4;;;;;;;;;;;;;
2021/09/07 15:13:32;;;;;;;4.4;3.5;;;;;;;;;;;;;
2021/09/07 15:15:57;;;;;;;6;3.6;;;;;;;;;;;;;
2021/09/07 15:18:22;;;;;;;4.9;3.9;;;;;;;;;;;;;
2021/09/07 15:20:47;;;;;;;4.8;3.6;;;;;;;;;;;;;
2021/09/07 15:23:12;;;;;;;5.6;3.2;;;;;;;;;;;;;
2021/09/07 15:25:39;;;;;;;6.7;3.6;;;;;;;;;;;;;
2021/09/07 15:28:02;;;;;;;6.3;3.9;;;;;;;;;;;;;
2021/09/07 15:30:27;;;;;;;4.3;3.5;;;;;;;;;;;;;
2021/09/07 15:32:52;;;;;;;4.1;3.3;;;;;;;;;;;;;
2021/09/07 15:35:18;;;;;;;4;3.3;;;;;;;;;;;;;
2021/09/07 15:37:43;;;;;;;6.2;4;;;;;;;;;;;;;
2021/09/07 15:40:08;;;;;;;4.6;3.5;;;;;;;;;;;;;
2021/09/07 15:42:33;;;;;;;5.1;3.5;;;;;;;;;;;;;
2021/09/07 15:44:58;;;;;;;6.2;3.6;;;;;;;;;;;;;
2021/09/07 15:47:23;;;;;;;4.9;3.7;;;;;;;;;;;;;
2021/09/07 15:49:48;;;;;;;4.5;3.6;;;;;;;;;;;;;
2021/09/07 15:52:14;;;;;;;9.7;3.7;;;;;;;;;;;;;
2021/09/07 15:54:38;;;;;;;4.3;3.6;;;;;;;;;;;;;
2021/09/07 15:57:20;;;;;;;3.6;2.9;;;;;;;;;;;;;
2021/09/07 15:59:45;;;;;;;4.2;3.3;;;;;;;;;;;;;
2021/09/07 16:02:10;;;;;;;6.3;3.4;;;;;;;;;;;;;
2021/09/07 16:04:35;;;;;;;4.6;3.3;;;;;;;;;;;;;
2021/09/07 16:07:01;;;;;;;3.5;3;;;;;;;;;;;;;
2021/09/07 16:09:26;;;;;;;6.4;3.9;;;;;;;;;;;;;
2021/09/07 16:11:53;;;;;;;4.2;3.6;;;;;;;;;;;;;
2021/09/07 16:14:16;;;;;;;4.5;3.2;;;;;;;;;;;;;
2021/09/07 16:16:41;;;;;;;3.9;3.2;;;;;;;;;;;;;
2021/09/07 16:19:06;;;;;;;4.2;3.4;;;;;;;;;;;;;
2021/09/07 16:21:31;;;;;;;4.6;3.4;;;;;;;;;;;;;
2021/09/07 16:24:06;;;;;;;5.3;3.4;;;;;;;;;;;;;
2021/09/07 16:26:21;;;;;;;4.6;3.3;;;;;;;;;;;;;
2021/09/07 16:28:46;;;;;;;4.3;3.6;;;;;;;;;;;;;
2021/09/07 16:31:11;;;;;;;3.9;3.4;;;;;;;;;;;;;
2021/09/07 16:33:36;;;;;;;4.2;3.5;;;;;;;;;;;;;
2021/09/07 16:36:02;;;;;;;4.4;3.3;;;;;;;;;;;;;
2021/09/07 16:38:27;;;;;;;4.6;3.5;;;;;;;;;;;;;
2021/09/07 16:40:52;;;;;;;4.9;3.4;;;;;;;;;;;;;
2021/09/07 16:43:17;;;;;;;5;3.6;;;;;;;;;;;;;
2021/09/07 16:45:42;;;;;;;4.3;3.2;;;;;;;;;;;;;
2021/09/07 16:48:07;;;;;;;4.3;3.3;;;;;;;;;;;;;
2021/09/07 16:50:34;;;;;;;5.1;3.7;;;;;;;;;;;;;
2021/09/07 16:53:06;;;;;;;6.6;3.8;;;;;;;;;;;;;
2021/09/07 16:55:29;;;;;;;6.3;3.7;;;;;;;;;;;;;
2021/09/07 16:57:48;;;;;;;4.8;3.5;;;;;;;;;;;;;
2021/09/07 17:00:14;;;;;;;4.3;3.6;;;;;;;;;;;;;
2021/09/07 17:02:39;;;;;;;4.3;3.6;;;;;;;;;;;;;
2021/09/07 17:05:04;;;;;;;4.8;3.5;;;;;;;;;;;;;
2021/09/07 17:07:35;;;;;;;4.8;3.6;;;;;;;;;;;;;
2021/09/07 17:10:00;;;;;;;5;3.7;;;;;;;;;;;;;
2021/09/07 17:12:19;;;;;;;5.7;3.8;;;;;;;;;;;;;
2021/09/07 17:14:44;;;;;;;6.4;3.9;;;;;;;;;;;;;
2021/09/07 17:17:09;;;;;;;7.8;4.4;;;;;;;;;;;;;
2021/09/07 17:19:35;;;;;;;7.2;4.1;;;;;;;;;;;;;
2021/09/07 17:22:00;;;;;;;6.5;4.4;;;;;;;;;;;;;
2021/09/07 17:24:25;;;;;;;5.3;4.1;;;;;;;;;;;;;
2021/09/07 17:26:50;;;;;;;5.1;3.7;;;;;;;;;;;;;
2021/09/07 17:29:20;;;;;;;4.7;4;;;;;;;;;;;;;
2021/09/07 17:31:49;;;;;;;5.8;4;;;;;;;;;;;;;
2021/09/07 17:34:16;;;;;;;6.4;4.1;;;;;;;;;;;;;
2021/09/07 17:37:01;;;;;;;5.9;4.3;;;;;;;;;;;;;
2021/09/07 17:39:06;;;;;;;5;4;;;;;;;;;;;;;
2021/09/07 17:41:36;;;;;;;5.2;4.3;;;;;;;;;;;;;
2021/09/07 17:43:46;;;;;;;5.5;4.4;;;;;;;;;;;;;
2021/09/07 17:46:12;;;;;;;6.2;4.5;;;;;;;;;;;;;
2021/09/07 17:48:37;;;;;;;7.5;4.2;;;;;;;;;;;;;
2021/09/07 17:51:02;;;;;;;5.2;4.3;;;;;;;;;;;;;
2021/09/07 17:53:27;;;;;;;7;4.1;;;;;;;;;;;;;
2021/09/07 17:55:52;;;;;;;4.9;3.8;;;;;;;;;;;;;
2021/09/07 17:58:23;;;;;;;7.2;4.3;;;;;;;;;;;;;
2021/09/07 18:00:48;;;;;;;5.7;4;;;;;;;;;;;;;
2021/09/07 18:03:13;;;;;;;6.1;4.1;;;;;;;;;;;;;
2021/09/07 18:05:39;;;;;;;6.6;4.2;;;;;;;;;;;;;
2021/09/07 18:08:04;;;;;;;5.6;4.5;;;;;;;;;;;;;
2021/09/07 18:10:29;;;;;;;7.5;4.5;;;;;;;;;;;;;
2021/09/07 18:12:54;;;;;;;7.1;4.6;;;;;;;;;;;;;
2021/09/07 18:15:19;;;;;;;6.2;4.4;;;;;;;;;;;;;
2021/09/07 18:17:45;;;;;;;5.2;4.3;;;;;;;;;;;;;
2021/09/07 18:20:10;;;;;;;6.5;4.3;;;;;;;;;;;;;
2021/09/07 18:22:35;;;;;;;9.8;5;;;;;;;;;;;;;
2021/09/07 18:25:00;;;;;;;7.3;4.5;;;;;;;;;;;;;
2021/09/07 18:27:25;;;;;;;6.9;4.5;;;;;;;;;;;;;
2021/09/07 18:29:51;;;;;;;7.7;4.9;;;;;;;;;;;;;
2021/09/07 18:32:16;;;;;;;6.4;4.7;;;;;;;;;;;;;
2021/09/07 18:34:41;;;;;;;7.8;4.6;;;;;;;;;;;;;
2021/09/07 18:37:06;;;;;;;9.7;5.1;;;;;;;;;;;;;
2021/09/07 18:39:32;;;;;;;7.7;5.1;;;;;;;;;;;;;
2021/09/07 18:41:57;;;;;;;6.9;4.9;;;;;;;;;;;;;
2021/09/07 18:44:22;;;;;;;6.8;5.1;;;;;;;;;;;;;
2021/09/07 18:46:47;;;;;;;7.6;5.6;;;;;;;;;;;;;
2021/09/07 18:49:12;;;;;;;7.1;5;;;;;;;;;;;;;
2021/09/07 18:51:37;;;;;;;8.1;5.4;;;;;;;;;;;;;
2021/09/07 18:54:03;;;;;;;5.8;4.7;;;;;;;;;;;;;
2021/09/07 18:56:28;;;;;;;6.7;4.7;;;;;;;;;;;;;
2021/09/07 18:58:54;;;;;;;6.5;5.2;;;;;;;;;;;;;
2021/09/07 19:01:19;;;;;;;7.9;5.3;;;;;;;;;;;;;
2021/09/07 19:03:45;;;;;;;6.1;4.8;;;;;;;;;;;;;
2021/09/07 19:06:11;;;;;;;6.7;4.7;;;;;;;;;;;;;
2021/09/07 19:08:35;;;;;;;9.9;5.6;;;;;;;;;;;;;
2021/09/07 19:11:01;;;;;;;7.8;5.3;;;;;;;;;;;;;
2021/09/07 19:13:27;;;;;;;7.7;5;;;;;;;;;;;;;
2021/09/07 19:15:51;;;;;;;7.9;5.2;;;;;;;;;;;;;
2021/09/07 19:18:16;;;;;;;6.4;4.9;;;;;;;;;;;;;
2021/09/07 19:20:41;;;;;;;6.6;5.2;;;;;;;;;;;;;
2021/09/07 19:23:07;;;;;;;7;5.2;;;;;;;;;;;;;
2021/09/07 19:25:32;;;;;;;6.4;5.2;;;;;;;;;;;;;
2021/09/07 19:27:57;;;;;;;6.6;5.2;;;;;;;;;;;;;
2021/09/07 19:30:22;;;;;;;7.4;5.3;;;;;;;;;;;;;
2021/09/07 19:32:47;;;;;;;8.4;5;;;;;;;;;;;;;
2021/09/07 19:35:17;;;;;;;6.9;4.7;;;;;;;;;;;;;
2021/09/07 19:37:43;;;;;;;6.7;4.5;;;;;;;;;;;;;
2021/09/07 19:40:08;;;;;;;7.6;5;;;;;;;;;;;;;